sensor_id;sensor_type;location;lat;lon;timestamp;pressure;altitude;pressure_sealevel;temperature;humidity
68712;BME280;55690;51.566;19.198;2023-08-07T00:03:04;100210.14;;;16.30;100.00
68712;BME280;55690;51.566;19.198;2023-08-07T00:07:10;100208.36;;;16.55;100.00
68712;BME280;55690;51.566;19.198;2023-08-07T00:11:16;100205.04;;;16.35;100.00
68712;BME280;55690;51.566;19.198;2023-08-07T00:15:23;100208.11;;;16.32;100.00
68712;BME280;55690;51.566;19.198;2023-08-07T00:19:29;100197.20;;;16.14;100.00
68712;BME280;55690;51.566;19.198;2023-08-07T00:23:35;100195.27;;;16.07;100.00
68712;BME280;55690;51.566;19.198;2023-08-07T00:27:41;100182.33;;;16.17;100.00
68712;BME280;55690;51.566;19.198;2023-08-07T00:31:47;100180.07;;;16.12;100.00
68712;BME280;55690;51.566;19.198;2023-08-07T00:35:53;100179.80;;;16.23;100.00
68712;BME280;55690;51.566;19.198;2023-08-07T00:39:59;100190.02;;;16.13;100.00
68712;BME280;55690;51.566;19.198;2023-08-07T00:44:06;100191.56;;;16.16;100.00
68712;BME280;55690;51.566;19.198;2023-08-07T00:48:12;100183.27;;;16.00;100.00
68712;BME280;55690;51.566;19.198;2023-08-07T00:52:19;100185.48;;;15.96;100.00
68712;BME280;55690;51.566;19.198;2023-08-07T00:56:25;100186.35;;;16.05;100.00
68712;BME280;55690;51.566;19.198;2023-08-07T01:00:30;100176.27;;;16.05;100.00
68712;BME280;55690;51.566;19.198;2023-08-07T01:04:36;100169.74;;;15.98;100.00
68712;BME280;55690;51.566;19.198;2023-08-07T01:08:43;100168.19;;;15.95;100.00
68712;BME280;55690;51.566;19.198;2023-08-07T01:12:54;100175.64;;;15.85;100.00
68712;BME280;55690;51.566;19.198;2023-08-07T01:17:08;100178.12;;;15.96;100.00
68712;BME280;55690;51.566;19.198;2023-08-07T01:21:17;100190.19;;;15.86;100.00
68712;BME280;55690;51.566;19.198;2023-08-07T01:25:18;100197.87;;;15.82;100.00
68712;BME280;55690;51.566;19.198;2023-08-07T01:29:27;100194.27;;;15.82;100.00
68712;BME280;55690;51.566;19.198;2023-08-07T01:33:39;100175.90;;;15.74;100.00
68712;BME280;55690;51.566;19.198;2023-08-07T01:37:42;100177.14;;;15.80;100.00
68712;BME280;55690;51.566;19.198;2023-08-07T01:41:44;100173.93;;;15.58;100.00
68712;BME280;55690;51.566;19.198;2023-08-07T01:45:46;100167.76;;;15.82;100.00
68712;BME280;55690;51.566;19.198;2023-08-07T01:49:47;100150.47;;;15.82;100.00
68712;BME280;55690;51.566;19.198;2023-08-07T01:53:51;100148.21;;;15.77;100.00
68712;BME280;55690;51.566;19.198;2023-08-07T01:57:57;100143.32;;;15.89;100.00
68712;BME280;55690;51.566;19.198;2023-08-07T02:02:03;100146.76;;;15.91;100.00
68712;BME280;55690;51.566;19.198;2023-08-07T02:06:09;100150.84;;;15.87;100.00
68712;BME280;55690;51.566;19.198;2023-08-07T02:10:15;100156.05;;;15.72;100.00
68712;BME280;55690;51.566;19.198;2023-08-07T02:14:21;100170.59;;;15.73;100.00
68712;BME280;55690;51.566;19.198;2023-08-07T02:18:27;100179.95;;;15.88;100.00
68712;BME280;55690;51.566;19.198;2023-08-07T02:22:34;100189.81;;;15.81;100.00
68712;BME280;55690;51.566;19.198;2023-08-07T02:26:40;100207.00;;;15.91;100.00
68712;BME280;55690;51.566;19.198;2023-08-07T02:30:46;100208.72;;;15.92;100.00
68712;BME280;55690;51.566;19.198;2023-08-07T02:34:52;100206.68;;;15.94;100.00
68712;BME280;55690;51.566;19.198;2023-08-07T02:38:58;100209.58;;;15.92;100.00
68712;BME280;55690;51.566;19.198;2023-08-07T02:43:04;100204.31;;;15.99;100.00
68712;BME280;55690;51.566;19.198;2023-08-07T02:47:11;100206.23;;;15.81;100.00
68712;BME280;55690;51.566;19.198;2023-08-07T02:51:17;100207.98;;;15.64;100.00
68712;BME280;55690;51.566;19.198;2023-08-07T02:55:23;100218.05;;;15.81;100.00
68712;BME280;55690;51.566;19.198;2023-08-07T02:59:29;100207.98;;;15.64;100.00
68712;BME280;55690;51.566;19.198;2023-08-07T03:03:35;100212.91;;;15.60;100.00
68712;BME280;55690;51.566;19.198;2023-08-07T03:07:41;100206.27;;;15.63;100.00
68712;BME280;55690;51.566;19.198;2023-08-07T03:11:48;100201.65;;;15.63;100.00
68712;BME280;55690;51.566;19.198;2023-08-07T03:16:02;100196.25;;;15.72;100.00
68712;BME280;55690;51.566;19.198;2023-08-07T03:20:05;100186.84;;;15.74;100.00
68712;BME280;55690;51.566;19.198;2023-08-07T03:24:07;100204.07;;;15.67;100.00
68712;BME280;55690;51.566;19.198;2023-08-07T03:28:12;100210.81;;;15.54;100.00
68712;BME280;55690;51.566;19.198;2023-08-07T03:32:18;100211.72;;;15.81;100.00
68712;BME280;55690;51.566;19.198;2023-08-07T03:36:25;100206.07;;;15.82;100.00
68712;BME280;55690;51.566;19.198;2023-08-07T03:40:31;100221.04;;;15.70;100.00
68712;BME280;55690;51.566;19.198;2023-08-07T03:44:37;100239.72;;;15.75;100.00
68712;BME280;55690;51.566;19.198;2023-08-07T03:48:43;100235.51;;;15.62;100.00
68712;BME280;55690;51.566;19.198;2023-08-07T03:52:49;100244.66;;;15.53;100.00
68712;BME280;55690;51.566;19.198;2023-08-07T03:56:56;100253.73;;;15.72;100.00
68712;BME280;55690;51.566;19.198;2023-08-07T04:01:02;100254.31;;;16.01;100.00
68712;BME280;55690;51.566;19.198;2023-08-07T04:05:08;100251.60;;;16.09;100.00
68712;BME280;55690;51.566;19.198;2023-08-07T04:09:14;100256.90;;;16.03;100.00
68712;BME280;55690;51.566;19.198;2023-08-07T04:13:20;100264.73;;;15.98;100.00
68712;BME280;55690;51.566;19.198;2023-08-07T04:17:26;100264.44;;;15.83;100.00
68712;BME280;55690;51.566;19.198;2023-08-07T04:21:33;100266.99;;;16.02;100.00
68712;BME280;55690;51.566;19.198;2023-08-07T04:25:39;100263.88;;;15.97;100.00
68712;BME280;55690;51.566;19.198;2023-08-07T04:29:45;100262.41;;;15.85;100.00
68712;BME280;55690;51.566;19.198;2023-08-07T04:33:51;100259.56;;;16.20;100.00
68712;BME280;55690;51.566;19.198;2023-08-07T04:37:57;100246.02;;;16.45;100.00
68712;BME280;55690;51.566;19.198;2023-08-07T04:42:04;100253.45;;;16.26;100.00
68712;BME280;55690;51.566;19.198;2023-08-07T04:46:09;100244.90;;;16.29;100.00
68712;BME280;55690;51.566;19.198;2023-08-07T04:50:16;100247.48;;;16.31;100.00
68712;BME280;55690;51.566;19.198;2023-08-07T04:54:22;100258.70;;;16.46;100.00
68712;BME280;55690;51.566;19.198;2023-08-07T04:58:28;100260.38;;;16.39;100.00
68712;BME280;55690;51.566;19.198;2023-08-07T05:02:34;100262.85;;;16.58;100.00
68712;BME280;55690;51.566;19.198;2023-08-07T05:06:40;100272.59;;;16.52;100.00
68712;BME280;55690;51.566;19.198;2023-08-07T05:10:46;100277.33;;;16.68;100.00
68712;BME280;55690;51.566;19.198;2023-08-07T05:14:53;100279.47;;;16.82;100.00
68712;BME280;55690;51.566;19.198;2023-08-07T05:18:59;100283.87;;;17.17;100.00
68712;BME280;55690;51.566;19.198;2023-08-07T05:23:05;100277.63;;;16.99;100.00
68712;BME280;55690;51.566;19.198;2023-08-07T05:27:11;100283.20;;;17.23;100.00
68712;BME280;55690;51.566;19.198;2023-08-07T05:31:17;100286.83;;;17.40;100.00
68712;BME280;55690;51.566;19.198;2023-08-07T05:35:23;100284.27;;;17.47;100.00
68712;BME280;55690;51.566;19.198;2023-08-07T05:39:30;100289.57;;;17.40;100.00
68712;BME280;55690;51.566;19.198;2023-08-07T05:43:36;100293.51;;;17.38;100.00
68712;BME280;55690;51.566;19.198;2023-08-07T05:47:42;100286.65;;;17.42;100.00
68712;BME280;55690;51.566;19.198;2023-08-07T05:51:48;100293.70;;;17.44;100.00
68712;BME280;55690;51.566;19.198;2023-08-07T05:55:55;100299.88;;;17.30;100.00
68712;BME280;55690;51.566;19.198;2023-08-07T06:00:01;100299.45;;;17.75;100.00
68712;BME280;55690;51.566;19.198;2023-08-07T06:04:07;100303.73;;;17.94;100.00
68712;BME280;55690;51.566;19.198;2023-08-07T06:08:13;100302.84;;;18.26;100.00
68712;BME280;55690;51.566;19.198;2023-08-07T06:12:19;100306.31;;;17.95;97.76
68712;BME280;55690;51.566;19.198;2023-08-07T06:16:25;100307.00;;;18.14;98.80
68712;BME280;55690;51.566;19.198;2023-08-07T06:20:31;100320.52;;;18.40;96.43
68712;BME280;55690;51.566;19.198;2023-08-07T06:24:37;100297.92;;;18.85;95.50
68712;BME280;55690;51.566;19.198;2023-08-07T06:28:44;100311.92;;;19.06;96.24
68712;BME280;55690;51.566;19.198;2023-08-07T06:32:50;100319.53;;;19.04;95.26
68712;BME280;55690;51.566;19.198;2023-08-07T06:36:56;100319.02;;;19.01;94.05
68712;BME280;55690;51.566;19.198;2023-08-07T06:41:02;100324.05;;;19.28;93.82
68712;BME280;55690;51.566;19.198;2023-08-07T06:45:09;100321.08;;;19.69;91.31
68712;BME280;55690;51.566;19.198;2023-08-07T06:49:14;100320.05;;;19.92;91.50
68712;BME280;55690;51.566;19.198;2023-08-07T06:53:20;100336.46;;;19.86;88.83
68712;BME280;55690;51.566;19.198;2023-08-07T06:57:27;100335.63;;;19.54;90.24
68712;BME280;55690;51.566;19.198;2023-08-07T07:01:33;100332.14;;;19.60;91.07
68712;BME280;55690;51.566;19.198;2023-08-07T07:05:39;100335.39;;;19.64;90.97
68712;BME280;55690;51.566;19.198;2023-08-07T07:09:45;100339.63;;;20.20;88.36
68712;BME280;55690;51.566;19.198;2023-08-07T07:13:52;100337.54;;;20.00;89.13
68712;BME280;55690;51.566;19.198;2023-08-07T07:17:57;100340.48;;;19.98;87.76
68712;BME280;55690;51.566;19.198;2023-08-07T07:22:04;100329.44;;;19.52;86.29
68712;BME280;55690;51.566;19.198;2023-08-07T07:26:10;100346.41;;;20.33;89.12
68712;BME280;55690;51.566;19.198;2023-08-07T07:30:16;100357.27;;;20.72;87.89
68712;BME280;55690;51.566;19.198;2023-08-07T07:34:22;100348.08;;;20.19;83.96
68712;BME280;55690;51.566;19.198;2023-08-07T07:38:28;100359.59;;;20.45;85.03
68712;BME280;55690;51.566;19.198;2023-08-07T07:42:34;100370.55;;;20.53;86.15
68712;BME280;55690;51.566;19.198;2023-08-07T07:46:41;100358.95;;;20.58;85.83
68712;BME280;55690;51.566;19.198;2023-08-07T07:50:47;100375.72;;;20.86;86.78
68712;BME280;55690;51.566;19.198;2023-08-07T07:54:53;100369.16;;;20.87;83.29
68712;BME280;55690;51.566;19.198;2023-08-07T07:58:59;100380.22;;;21.02;83.29
68712;BME280;55690;51.566;19.198;2023-08-07T08:03:05;100373.26;;;20.91;81.15
68712;BME280;55690;51.566;19.198;2023-08-07T08:07:11;100395.91;;;21.01;81.48
68712;BME280;55690;51.566;19.198;2023-08-07T08:11:17;100375.36;;;21.04;82.00
68712;BME280;55690;51.566;19.198;2023-08-07T08:15:24;100383.85;;;21.17;82.52
68712;BME280;55690;51.566;19.198;2023-08-07T08:19:30;100382.41;;;21.50;83.54
68712;BME280;55690;51.566;19.198;2023-08-07T08:23:36;100382.89;;;21.10;81.12
68712;BME280;55690;51.566;19.198;2023-08-07T08:27:42;100386.50;;;21.10;79.97
68712;BME280;55690;51.566;19.198;2023-08-07T08:31:48;100381.09;;;21.82;80.78
68712;BME280;55690;51.566;19.198;2023-08-07T08:35:54;100393.28;;;21.37;81.40
68712;BME280;55690;51.566;19.198;2023-08-07T08:40:01;100394.40;;;21.57;81.25
68712;BME280;55690;51.566;19.198;2023-08-07T08:44:07;100390.63;;;21.80;82.09
68712;BME280;55690;51.566;19.198;2023-08-07T08:48:19;100393.10;;;21.75;80.37
68712;BME280;55690;51.566;19.198;2023-08-07T08:52:24;100388.01;;;22.08;79.27
68712;BME280;55690;51.566;19.198;2023-08-07T08:56:27;100387.96;;;21.72;77.44
68712;BME280;55690;51.566;19.198;2023-08-07T09:00:32;100391.01;;;21.77;79.04
68712;BME280;55690;51.566;19.198;2023-08-07T09:04:38;100384.20;;;21.94;78.32
68712;BME280;55690;51.566;19.198;2023-08-07T09:08:44;100401.89;;;22.36;80.38
68712;BME280;55690;51.566;19.198;2023-08-07T09:13:00;100390.23;;;22.19;78.03
68712;BME280;55690;51.566;19.198;2023-08-07T09:17:02;100381.21;;;22.32;77.22
68712;BME280;55690;51.566;19.198;2023-08-07T09:21:05;100399.38;;;22.19;77.87
68712;BME280;55690;51.566;19.198;2023-08-07T09:25:09;100398.68;;;21.96;78.74
68712;BME280;55690;51.566;19.198;2023-08-07T09:29:14;100403.00;;;21.84;76.29
68712;BME280;55690;51.566;19.198;2023-08-07T09:33:25;100410.51;;;21.24;77.43
68712;BME280;55690;51.566;19.198;2023-08-07T09:37:27;100403.41;;;21.66;76.05
68712;BME280;55690;51.566;19.198;2023-08-07T09:41:33;100402.78;;;21.64;77.95
68712;BME280;55690;51.566;19.198;2023-08-07T09:45:40;100407.31;;;21.72;78.59
68712;BME280;55690;51.566;19.198;2023-08-07T09:49:46;100412.80;;;21.50;79.45
68712;BME280;55690;51.566;19.198;2023-08-07T09:53:51;100419.17;;;21.66;76.15
68712;BME280;55690;51.566;19.198;2023-08-07T09:58:00;100422.28;;;22.13;75.74
68712;BME280;55690;51.566;19.198;2023-08-07T10:02:05;100409.66;;;22.26;72.02
68712;BME280;55690;51.566;19.198;2023-08-07T10:06:11;100412.63;;;22.45;75.25
68712;BME280;55690;51.566;19.198;2023-08-07T10:10:17;100425.85;;;22.29;72.71
68712;BME280;55690;51.566;19.198;2023-08-07T10:14:22;100415.96;;;22.83;73.40
68712;BME280;55690;51.566;19.198;2023-08-07T10:18:28;100419.71;;;22.54;72.20
68712;BME280;55690;51.566;19.198;2023-08-07T10:22:38;100437.70;;;22.65;72.39
68712;BME280;55690;51.566;19.198;2023-08-07T10:26:43;100439.41;;;22.66;73.54
68712;BME280;55690;51.566;19.198;2023-08-07T10:30:47;100437.29;;;23.17;71.86
68712;BME280;55690;51.566;19.198;2023-08-07T10:34:53;100450.13;;;23.25;71.88
68712;BME280;55690;51.566;19.198;2023-08-07T10:39:06;100452.75;;;23.40;72.16
68712;BME280;55690;51.566;19.198;2023-08-07T10:43:16;100442.34;;;23.42;71.83
68712;BME280;55690;51.566;19.198;2023-08-07T10:51:31;100451.94;;;23.39;70.04
68712;BME280;55690;51.566;19.198;2023-08-07T10:55:43;100453.81;;;23.67;68.90
68712;BME280;55690;51.566;19.198;2023-08-07T10:59:50;100467.00;;;23.02;70.64
68712;BME280;55690;51.566;19.198;2023-08-07T11:03:57;100478.04;;;22.96;73.69
68712;BME280;55690;51.566;19.198;2023-08-07T11:07:59;100479.64;;;22.83;72.49
68712;BME280;55690;51.566;19.198;2023-08-07T11:12:02;100473.02;;;22.63;70.84
68712;BME280;55690;51.566;19.198;2023-08-07T11:16:05;100468.96;;;22.80;70.69
68712;BME280;55690;51.566;19.198;2023-08-07T11:20:07;100470.33;;;22.70;71.63
68712;BME280;55690;51.566;19.198;2023-08-07T11:24:15;100461.61;;;23.22;70.37
68712;BME280;55690;51.566;19.198;2023-08-07T11:28:21;100458.43;;;23.53;67.26
68712;BME280;55690;51.566;19.198;2023-08-07T11:32:23;100483.05;;;23.41;71.05
68712;BME280;55690;51.566;19.198;2023-08-07T11:36:25;100477.93;;;22.82;69.63
68712;BME280;55690;51.566;19.198;2023-08-07T11:40:32;100468.31;;;23.06;71.30
68712;BME280;55690;51.566;19.198;2023-08-07T11:44:38;100468.77;;;23.72;69.39
68712;BME280;55690;51.566;19.198;2023-08-07T11:48:44;100471.11;;;23.69;68.82
68712;BME280;55690;51.566;19.198;2023-08-07T11:52:50;100469.05;;;23.91;69.68
68712;BME280;55690;51.566;19.198;2023-08-07T11:56:56;100465.30;;;24.11;67.51
68712;BME280;55690;51.566;19.198;2023-08-07T12:01:09;100472.43;;;24.34;67.80
68712;BME280;55690;51.566;19.198;2023-08-07T12:05:11;100464.37;;;24.52;65.18
68712;BME280;55690;51.566;19.198;2023-08-07T12:09:15;100461.26;;;24.14;64.40
68712;BME280;55690;51.566;19.198;2023-08-07T12:13:24;100455.59;;;24.42;64.90
68712;BME280;55690;51.566;19.198;2023-08-07T12:17:31;100465.71;;;24.96;64.89
68712;BME280;55690;51.566;19.198;2023-08-07T12:21:33;100474.05;;;25.09;67.48
68712;BME280;55690;51.566;19.198;2023-08-07T12:25:39;100465.45;;;24.77;64.79
68712;BME280;55690;51.566;19.198;2023-08-07T12:29:45;100483.63;;;24.06;62.29
68712;BME280;55690;51.566;19.198;2023-08-07T12:33:52;100494.63;;;23.51;64.88
68712;BME280;55690;51.566;19.198;2023-08-07T12:37:58;100508.19;;;23.40;66.18
68712;BME280;55690;51.566;19.198;2023-08-07T12:42:04;100514.74;;;23.04;65.70
68712;BME280;55690;51.566;19.198;2023-08-07T12:46:10;100505.65;;;23.38;68.78
68712;BME280;55690;51.566;19.198;2023-08-07T12:50:16;100504.43;;;23.19;68.23
68712;BME280;55690;51.566;19.198;2023-08-07T12:54:22;100513.91;;;22.82;67.61
68712;BME280;55690;51.566;19.198;2023-08-07T12:58:28;100526.19;;;22.95;67.96
68712;BME280;55690;51.566;19.198;2023-08-07T13:02:35;100517.94;;;23.29;68.75
68712;BME280;55690;51.566;19.198;2023-08-07T13:06:41;100524.89;;;22.76;69.58
68712;BME280;55690;51.566;19.198;2023-08-07T13:10:47;100535.27;;;22.31;70.18
68712;BME280;55690;51.566;19.198;2023-08-07T13:14:53;100530.09;;;22.43;70.76
68712;BME280;55690;51.566;19.198;2023-08-07T13:18:59;100520.85;;;22.57;71.27
68712;BME280;55690;51.566;19.198;2023-08-07T13:23:05;100516.78;;;22.74;69.90
68712;BME280;55690;51.566;19.198;2023-08-07T13:27:12;100522.70;;;23.14;69.95
68712;BME280;55690;51.566;19.198;2023-08-07T13:31:18;100522.45;;;23.09;68.44
68712;BME280;55690;51.566;19.198;2023-08-07T13:35:24;100529.81;;;22.59;67.26
68712;BME280;55690;51.566;19.198;2023-08-07T13:39:30;100531.08;;;23.20;69.43
68712;BME280;55690;51.566;19.198;2023-08-07T13:43:36;100544.84;;;23.35;69.94
68712;BME280;55690;51.566;19.198;2023-08-07T13:47:42;100556.88;;;23.00;67.52
68712;BME280;55690;51.566;19.198;2023-08-07T13:51:49;100546.55;;;23.36;68.09
68712;BME280;55690;51.566;19.198;2023-08-07T13:55:55;100554.95;;;23.00;67.17
68712;BME280;55690;51.566;19.198;2023-08-07T14:00:01;100556.48;;;23.03;67.02
68712;BME280;55690;51.566;19.198;2023-08-07T14:04:07;100561.03;;;23.10;68.55
68712;BME280;55690;51.566;19.198;2023-08-07T14:08:13;100563.74;;;22.82;66.83
68712;BME280;55690;51.566;19.198;2023-08-07T14:12:19;100564.30;;;22.78;69.32
68712;BME280;55690;51.566;19.198;2023-08-07T14:16:26;100566.05;;;22.43;67.49
68712;BME280;55690;51.566;19.198;2023-08-07T14:20:32;100570.55;;;22.65;69.45
68712;BME280;55690;51.566;19.198;2023-08-07T14:24:38;100575.41;;;22.99;70.53
68712;BME280;55690;51.566;19.198;2023-08-07T14:28:44;100572.39;;;22.94;68.65
68712;BME280;55690;51.566;19.198;2023-08-07T14:32:50;100565.25;;;23.06;66.71
68712;BME280;55690;51.566;19.198;2023-08-07T14:36:56;100569.98;;;23.34;67.20
68712;BME280;55690;51.566;19.198;2023-08-07T14:41:02;100570.63;;;23.36;64.59
68712;BME280;55690;51.566;19.198;2023-08-07T14:45:09;100581.40;;;23.24;63.89
68712;BME280;55690;51.566;19.198;2023-08-07T14:49:15;100584.64;;;23.06;60.94
68712;BME280;55690;51.566;19.198;2023-08-07T14:53:21;100582.55;;;22.87;60.00
68712;BME280;55690;51.566;19.198;2023-08-07T14:57:27;100594.02;;;22.69;60.04
68712;BME280;55690;51.566;19.198;2023-08-07T15:01:33;100599.16;;;22.87;63.73
68712;BME280;55690;51.566;19.198;2023-08-07T15:05:40;100600.13;;;22.79;65.21
68712;BME280;55690;51.566;19.198;2023-08-07T15:09:46;100595.46;;;22.65;65.41
68712;BME280;55690;51.566;19.198;2023-08-07T15:13:52;100611.66;;;22.47;68.01
68712;BME280;55690;51.566;19.198;2023-08-07T15:17:58;100614.94;;;22.57;68.50
68712;BME280;55690;51.566;19.198;2023-08-07T15:22:04;100627.41;;;22.32;68.64
68712;BME280;55690;51.566;19.198;2023-08-07T15:26:10;100625.80;;;22.22;70.32
68712;BME280;55690;51.566;19.198;2023-08-07T15:30:16;100633.76;;;21.73;71.22
68712;BME280;55690;51.566;19.198;2023-08-07T15:34:22;100626.05;;;21.83;71.60
68712;BME280;55690;51.566;19.198;2023-08-07T15:38:29;100636.81;;;21.64;72.44
68712;BME280;55690;51.566;19.198;2023-08-07T15:42:35;100655.00;;;21.58;72.65
68712;BME280;55690;51.566;19.198;2023-08-07T15:46:41;100688.99;;;20.51;75.46
68712;BME280;55690;51.566;19.198;2023-08-07T15:50:47;100690.23;;;19.69;83.76
68712;BME280;55690;51.566;19.198;2023-08-07T15:54:53;100687.96;;;19.23;88.79
68712;BME280;55690;51.566;19.198;2023-08-07T15:58:59;100682.97;;;19.19;89.69
68712;BME280;55690;51.566;19.198;2023-08-07T16:03:07;100688.32;;;19.28;92.04
68712;BME280;55690;51.566;19.198;2023-08-07T16:07:12;100688.84;;;19.32;90.48
68712;BME280;55690;51.566;19.198;2023-08-07T16:11:18;100705.72;;;19.37;90.87
68712;BME280;55690;51.566;19.198;2023-08-07T16:15:25;100706.02;;;19.18;93.28
68712;BME280;55690;51.566;19.198;2023-08-07T16:19:30;100715.98;;;19.11;93.36
68712;BME280;55690;51.566;19.198;2023-08-07T16:23:36;100711.44;;;18.77;91.73
68712;BME280;55690;51.566;19.198;2023-08-07T16:27:42;100721.55;;;18.69;93.96
68712;BME280;55690;51.566;19.198;2023-08-07T16:31:53;100732.72;;;18.33;91.14
68712;BME280;55690;51.566;19.198;2023-08-07T16:35:59;100732.27;;;18.12;91.61
68712;BME280;55690;51.566;19.198;2023-08-07T16:40:06;100714.27;;;18.17;90.49
68712;BME280;55690;51.566;19.198;2023-08-07T16:44:12;100720.80;;;18.24;92.75
68712;BME280;55690;51.566;19.198;2023-08-07T16:48:18;100722.95;;;18.39;92.27
68712;BME280;55690;51.566;19.198;2023-08-07T16:52:25;100737.32;;;18.58;90.49
68712;BME280;55690;51.566;19.198;2023-08-07T16:56:30;100737.19;;;18.68;88.28
68712;BME280;55690;51.566;19.198;2023-08-07T17:00:36;100740.23;;;18.57;89.24
68712;BME280;55690;51.566;19.198;2023-08-07T17:04:42;100737.77;;;18.46;91.07
68712;BME280;55690;51.566;19.198;2023-08-07T17:08:49;100734.16;;;18.45;85.96
68712;BME280;55690;51.566;19.198;2023-08-07T17:12:55;100733.50;;;18.17;84.37
68712;BME280;55690;51.566;19.198;2023-08-07T17:17:01;100751.72;;;18.18;85.82
68712;BME280;55690;51.566;19.198;2023-08-07T17:21:07;100755.15;;;17.94;86.36
68712;BME280;55690;51.566;19.198;2023-08-07T17:25:13;100752.20;;;17.52;88.49
68712;BME280;55690;51.566;19.198;2023-08-07T17:29:19;100762.17;;;17.18;89.65
68712;BME280;55690;51.566;19.198;2023-08-07T17:33:26;100767.18;;;17.40;89.27
68712;BME280;55690;51.566;19.198;2023-08-07T17:37:32;100777.22;;;17.14;91.14
68712;BME280;55690;51.566;19.198;2023-08-07T17:41:38;100786.80;;;17.45;90.93
68712;BME280;55690;51.566;19.198;2023-08-07T17:45:44;100789.92;;;17.15;91.56
68712;BME280;55690;51.566;19.198;2023-08-07T17:49:50;100797.14;;;17.34;91.55
68712;BME280;55690;51.566;19.198;2023-08-07T17:53:56;100806.34;;;17.24;91.90
68712;BME280;55690;51.566;19.198;2023-08-07T17:58:03;100805.33;;;16.98;93.41
68712;BME280;55690;51.566;19.198;2023-08-07T18:02:09;100801.87;;;16.96;94.59
68712;BME280;55690;51.566;19.198;2023-08-07T18:06:15;100812.80;;;17.06;94.28
68712;BME280;55690;51.566;19.198;2023-08-07T18:10:21;100814.70;;;16.78;96.11
68712;BME280;55690;51.566;19.198;2023-08-07T18:14:27;100817.05;;;16.90;95.37
68712;BME280;55690;51.566;19.198;2023-08-07T18:18:33;100815.29;;;16.72;96.92
68712;BME280;55690;51.566;19.198;2023-08-07T18:22:39;100816.20;;;16.90;95.95
68712;BME280;55690;51.566;19.198;2023-08-07T18:26:46;100831.81;;;16.89;96.20
68712;BME280;55690;51.566;19.198;2023-08-07T18:30:52;100825.80;;;17.04;95.93
68712;BME280;55690;51.566;19.198;2023-08-07T18:34:58;100839.10;;;16.99;95.83
68712;BME280;55690;51.566;19.198;2023-08-07T18:39:04;100844.70;;;16.79;97.41
68712;BME280;55690;51.566;19.198;2023-08-07T18:43:10;100844.44;;;17.00;95.39
68712;BME280;55690;51.566;19.198;2023-08-07T18:47:16;100843.13;;;17.04;96.74
68712;BME280;55690;51.566;19.198;2023-08-07T18:51:23;100849.36;;;16.69;98.99
68712;BME280;55690;51.566;19.198;2023-08-07T18:55:29;100853.58;;;16.91;98.40
68712;BME280;55690;51.566;19.198;2023-08-07T18:59:35;100849.52;;;16.95;99.44
68712;BME280;55690;51.566;19.198;2023-08-07T19:03:41;100845.61;;;16.98;100.00
68712;BME280;55690;51.566;19.198;2023-08-07T19:07:47;100838.10;;;17.00;100.00
68712;BME280;55690;51.566;19.198;2023-08-07T19:11:54;100850.52;;;16.67;100.00
68712;BME280;55690;51.566;19.198;2023-08-07T19:16:00;100856.13;;;16.75;100.00
68712;BME280;55690;51.566;19.198;2023-08-07T19:20:06;100853.68;;;16.62;100.00
68712;BME280;55690;51.566;19.198;2023-08-07T19:24:12;100855.70;;;16.60;100.00
68712;BME280;55690;51.566;19.198;2023-08-07T19:28:18;100863.52;;;16.55;100.00
68712;BME280;55690;51.566;19.198;2023-08-07T19:32:25;100859.75;;;16.66;100.00
68712;BME280;55690;51.566;19.198;2023-08-07T19:36:30;100866.64;;;16.79;100.00
68712;BME280;55690;51.566;19.198;2023-08-07T19:40:38;100869.51;;;16.87;100.00
68712;BME280;55690;51.566;19.198;2023-08-07T19:44:43;100860.41;;;16.87;100.00
68712;BME280;55690;51.566;19.198;2023-08-07T19:48:50;100860.19;;;16.98;100.00
68712;BME280;55690;51.566;19.198;2023-08-07T19:52:55;100852.52;;;17.02;100.00
68712;BME280;55690;51.566;19.198;2023-08-07T19:57:01;100852.90;;;16.89;100.00
68712;BME280;55690;51.566;19.198;2023-08-07T20:01:07;100856.43;;;16.99;100.00
68712;BME280;55690;51.566;19.198;2023-08-07T20:05:13;100868.13;;;16.64;100.00
68712;BME280;55690;51.566;19.198;2023-08-07T20:09:20;100867.37;;;16.81;100.00
68712;BME280;55690;51.566;19.198;2023-08-07T20:13:26;100868.67;;;16.77;100.00
68712;BME280;55690;51.566;19.198;2023-08-07T20:17:32;100872.95;;;16.89;100.00
68712;BME280;55690;51.566;19.198;2023-08-07T20:21:38;100873.86;;;16.80;100.00
68712;BME280;55690;51.566;19.198;2023-08-07T20:25:44;100882.20;;;16.88;100.00
68712;BME280;55690;51.566;19.198;2023-08-07T20:29:50;100871.30;;;16.69;100.00
68712;BME280;55690;51.566;19.198;2023-08-07T20:33:57;100880.63;;;16.86;100.00
68712;BME280;55690;51.566;19.198;2023-08-07T20:38:03;100876.46;;;16.82;100.00
68712;BME280;55690;51.566;19.198;2023-08-07T20:42:09;100876.95;;;16.95;100.00
68712;BME280;55690;51.566;19.198;2023-08-07T20:46:16;100883.57;;;17.02;100.00
68712;BME280;55690;51.566;19.198;2023-08-07T20:50:21;100884.53;;;16.83;100.00
68712;BME280;55690;51.566;19.198;2023-08-07T20:54:27;100891.34;;;16.60;100.00
68712;BME280;55690;51.566;19.198;2023-08-07T20:58:34;100895.38;;;16.75;100.00
68712;BME280;55690;51.566;19.198;2023-08-07T21:02:40;100894.10;;;16.70;100.00
68712;BME280;55690;51.566;19.198;2023-08-07T21:06:46;100896.10;;;16.77;100.00